METAR AND TAF INFORMATION
METAR FOR VQPR
ADDS - METARS form results

(0806 UTC 29 March 2020)
Data provider http://aviationweather.gov/metar/data/
 
METAR text: VQPR 290800Z 14021KT 9999 SKC 25/M08 Q1013
Conditions at: VQPR (PARO , BT) observed 0800 UTC 29 March 2020
Temperature: 25.0°C (77°F)
Dewpoint: -8.0°C (18°F) [RH = 11%]
Pressure (altimeter): 29.91 inches Hg (1013.0 mb)
Winds: from the SE (140 degrees) at 24 MPH (21 knots; 10.8 m/s)
Visibility: 6 or more miles (10+ km)
Ceiling: at least 12,000 feet AGL
Clouds: clear skies
Weather: no significant weather observed at this time

METAR text: VQPR 290730Z 15017G36KT 9999 SKC 25/M09 Q1014
Conditions at: VQPR (PARO , BT) observed 0730 UTC 29 March 2020
Temperature: 25.0°C (77°F)
Dewpoint: -9.0°C (16°F) [RH = 10%]
Pressure (altimeter): 29.94 inches Hg (1014.0 mb)
Winds: from the SSE (150 degrees) at 20 MPH (17 knots; 8.7 m/s)
gusting to 41 MPH (36 knots; 18.5 m/s)
Visibility: 6 or more miles (10+ km)
Ceiling: at least 12,000 feet AGL
Clouds: clear skies
Weather: no significant weather observed at this time

 AIRPORT MAP

 RUNWAY INFORMATION
Runway 15 Runway length 6445 ft Runway width 95 ft
Runway elevation 7355 ft Runway displaced threshold 0 ft Runway heading 151
Runway 33 Runway length 6445 ft Runway width 95 ft
Runway elevation 7328 ft Runway displaced threshold 0 ft Runway heading 331

 AIRPORT FREQUENCIES

 AIRPORT NEAR NAVIGATION AIDS
Type NDB Name Paro Frequency 410 KHZ
Type VOR Name Paro Frequency 108400 KHZ



Powered by Virtual Airlines Manager [v2.6.2]